createdAt,value
2023-03-29T00:01:41.953Z,19.00
2023-03-29T00:04:10.131Z,19.00
2023-03-29T00:06:37.676Z,19.00
2023-03-29T00:09:05.787Z,19.00
2023-03-29T00:11:32.761Z,19.00
2023-03-29T00:13:59.474Z,19.00
2023-03-29T00:16:26.453Z,19.00
2023-03-29T00:18:53.094Z,19.00
2023-03-29T00:21:19.751Z,19.00
2023-03-29T00:23:46.324Z,19.00
2023-03-29T00:26:12.983Z,19.00
2023-03-29T00:28:39.961Z,19.00
2023-03-29T00:31:12.591Z,19.00
2023-03-29T00:33:40.005Z,19.00
2023-03-29T00:36:07.481Z,19.00
2023-03-29T00:38:34.635Z,19.00
2023-03-29T00:41:02.156Z,18.90
2023-03-29T00:43:29.012Z,18.90
2023-03-29T00:45:55.724Z,18.90
2023-03-29T00:48:25.877Z,18.90
2023-03-29T00:50:59.599Z,18.90
2023-03-29T00:53:28.588Z,18.90
2023-03-29T00:56:19.754Z,18.90
2023-03-29T00:59:04.755Z,18.90
2023-03-29T01:01:42.109Z,18.90
2023-03-29T01:04:21.399Z,18.90
2023-03-29T01:06:56.965Z,18.90
2023-03-29T01:09:30.239Z,18.90
2023-03-29T01:12:00.899Z,18.90
2023-03-29T01:14:37.953Z,18.90
2023-03-29T01:17:04.881Z,18.90
2023-03-29T01:19:40.620Z,18.90
2023-03-29T01:22:28.215Z,18.90
2023-03-29T01:25:00.860Z,18.90
2023-03-29T01:27:53.865Z,18.90
2023-03-29T01:30:31.689Z,18.90
2023-03-29T01:33:12.464Z,18.90
2023-03-29T01:35:57.557Z,18.90
2023-03-29T01:38:49.547Z,18.80
2023-03-29T01:41:16.479Z,18.90
2023-03-29T01:43:55.370Z,18.80
2023-03-29T01:46:34.923Z,18.80
2023-03-29T01:49:11.047Z,18.80
2023-03-29T01:51:54.908Z,18.80
2023-03-29T01:54:34.952Z,18.80
2023-03-29T01:57:04.730Z,18.90
2023-03-29T01:59:34.097Z,18.90
2023-03-29T02:02:04.794Z,18.80
2023-03-29T02:04:39.458Z,18.80
2023-03-29T02:07:09.005Z,18.80
2023-03-29T02:09:37.569Z,18.90
2023-03-29T02:12:06.909Z,18.80
2023-03-29T02:14:33.523Z,18.80
2023-03-29T02:17:27.774Z,18.80
2023-03-29T02:20:00.631Z,18.80
2023-03-29T02:22:37.378Z,18.80
2023-03-29T02:25:08.876Z,18.80
2023-03-29T02:27:37.701Z,18.80
2023-03-29T02:30:06.728Z,18.80
2023-03-29T02:32:49.290Z,18.80
2023-03-29T02:35:39.103Z,18.80
2023-03-29T02:38:10.460Z,18.80
2023-03-29T02:40:39.007Z,18.80
2023-03-29T02:43:07.514Z,18.80
2023-03-29T02:45:35.909Z,18.80
2023-03-29T02:48:07.816Z,18.80
2023-03-29T02:50:38.523Z,18.80
2023-03-29T02:53:11.448Z,18.80
2023-03-29T02:55:39.056Z,18.80
2023-03-29T02:58:08.347Z,18.80
2023-03-29T03:00:41.235Z,18.80
2023-03-29T03:03:08.606Z,18.80
2023-03-29T03:05:36.069Z,18.80
2023-03-29T03:08:02.765Z,20.10
2023-03-29T03:10:29.359Z,18.80
2023-03-29T03:12:56.244Z,18.70
2023-03-29T03:15:22.858Z,18.70
2023-03-29T03:17:49.524Z,18.70
2023-03-29T03:20:16.292Z,18.70
2023-03-29T03:22:49.152Z,18.70
2023-03-29T03:25:16.984Z,18.70
2023-03-29T03:27:43.794Z,18.70
2023-03-29T03:30:11.224Z,18.70
2023-03-29T03:32:38.434Z,18.70
2023-03-29T03:35:07.411Z,18.70
2023-03-29T03:37:34.404Z,18.70
2023-03-29T03:40:01.188Z,18.70
2023-03-29T03:42:30.929Z,18.70
2023-03-29T03:44:58.043Z,18.70
2023-03-29T03:47:24.746Z,18.70
2023-03-29T03:49:51.514Z,18.70
2023-03-29T03:52:19.125Z,18.70
2023-03-29T03:54:46.588Z,18.70
2023-03-29T03:57:13.436Z,18.70
2023-03-29T03:59:40.101Z,18.70
2023-03-29T04:02:07.511Z,18.70
2023-03-29T04:04:34.689Z,18.70
2023-03-29T04:07:04.690Z,18.70
2023-03-29T04:09:33.113Z,18.70
2023-03-29T04:12:01.507Z,18.70
2023-03-29T04:14:32.083Z,18.70
2023-03-29T04:16:58.698Z,18.60
2023-03-29T04:19:25.386Z,18.70
2023-03-29T04:21:52.409Z,18.70
2023-03-29T04:24:25.501Z,18.70
2023-03-29T04:26:52.099Z,18.70
2023-03-29T04:29:18.672Z,18.70
2023-03-29T04:31:45.487Z,18.70
2023-03-29T04:34:12.223Z,18.70
2023-03-29T04:36:39.072Z,18.70
2023-03-29T04:39:07.647Z,18.70
2023-03-29T04:41:34.834Z,18.70
2023-03-29T04:44:03.362Z,18.70
2023-03-29T04:46:30.336Z,18.70
2023-03-29T04:48:57.380Z,18.70
2023-03-29T04:51:24.333Z,18.70
2023-03-29T04:53:51.035Z,18.70
2023-03-29T04:56:17.812Z,18.80
2023-03-29T04:58:45.123Z,18.70
2023-03-29T05:01:11.837Z,18.70
2023-03-29T05:03:38.639Z,18.70
2023-03-29T05:06:09.421Z,18.80
2023-03-29T05:08:39.052Z,18.80
2023-03-29T05:11:07.427Z,18.80
2023-03-29T05:13:35.244Z,18.80
2023-03-29T05:16:02.622Z,18.80
2023-03-29T05:18:30.899Z,18.80
2023-03-29T05:20:58.542Z,18.80
2023-03-29T05:23:25.666Z,18.80
2023-03-29T05:25:53.543Z,18.90
2023-03-29T05:28:21.171Z,18.90
2023-03-29T05:30:48.567Z,18.90
2023-03-29T05:33:15.234Z,18.90
2023-03-29T05:35:41.842Z,18.90
2023-03-29T05:38:08.759Z,18.90
2023-03-29T05:40:35.777Z,18.90
2023-03-29T05:43:02.744Z,18.90
2023-03-29T05:45:29.636Z,18.90
2023-03-29T05:47:57.531Z,19.00
2023-03-29T05:50:24.664Z,18.90
2023-03-29T05:52:51.514Z,19.00
2023-03-29T05:55:18.403Z,19.00
2023-03-29T05:57:45.075Z,19.00
2023-03-29T06:00:23.752Z,19.00
2023-03-29T06:02:52.486Z,19.00
2023-03-29T06:05:22.638Z,19.00
2023-03-29T06:07:49.381Z,19.00
2023-03-29T06:10:16.062Z,19.00
2023-03-29T06:12:42.675Z,19.00
2023-03-29T06:15:10.137Z,19.00
2023-03-29T06:17:37.063Z,19.10
2023-03-29T06:20:08.625Z,19.10
2023-03-29T06:22:35.831Z,19.00
2023-03-29T06:25:02.502Z,19.10
2023-03-29T06:27:29.128Z,19.10
2023-03-29T06:29:55.729Z,19.10
2023-03-29T06:32:23.297Z,19.00
2023-03-29T06:34:53.083Z,19.10
2023-03-29T06:37:21.371Z,19.10
2023-03-29T06:39:53.373Z,19.10
2023-03-29T06:42:21.819Z,19.00
2023-03-29T06:44:49.548Z,19.10
2023-03-29T06:47:17.219Z,19.10
2023-03-29T06:49:44.380Z,19.00
2023-03-29T06:52:11.310Z,19.00
2023-03-29T06:54:38.794Z,19.00
2023-03-29T06:57:05.468Z,19.00
2023-03-29T06:59:32.113Z,19.00
2023-03-29T07:01:58.906Z,19.00
2023-03-29T07:04:25.636Z,19.10
2023-03-29T07:07:01.305Z,19.10
2023-03-29T07:09:32.332Z,19.00
2023-03-29T07:11:59.725Z,19.10
2023-03-29T07:14:28.799Z,19.10
2023-03-29T07:16:56.134Z,19.10
2023-03-29T07:19:24.227Z,19.10
2023-03-29T07:21:53.220Z,19.10
2023-03-29T07:24:22.907Z,19.10
2023-03-29T07:27:03.200Z,19.00
2023-03-29T07:29:31.338Z,19.10
2023-03-29T07:31:58.039Z,19.10
2023-03-29T07:34:24.627Z,19.20
2023-03-29T07:36:51.938Z,19.10
2023-03-29T07:39:18.641Z,19.20
2023-03-29T07:41:45.251Z,19.20
2023-03-29T07:44:11.903Z,19.10
2023-03-29T07:46:38.582Z,19.20
2023-03-29T07:49:06.748Z,19.20
2023-03-29T07:51:33.342Z,19.20
2023-03-29T07:54:00.160Z,19.20
2023-03-29T07:56:26.955Z,19.20
2023-03-29T07:58:53.570Z,19.20
2023-03-29T08:01:20.301Z,19.20
2023-03-29T08:03:47.220Z,19.20
2023-03-29T08:06:16.018Z,19.20
2023-03-29T08:08:42.685Z,19.20
2023-03-29T08:11:10.252Z,19.20
2023-03-29T08:13:37.277Z,19.30
2023-03-29T08:16:05.687Z,19.30
2023-03-29T08:18:34.683Z,19.30
2023-03-29T08:21:01.912Z,19.30
2023-03-29T08:23:28.776Z,19.30
2023-03-29T08:25:55.576Z,19.30
2023-03-29T08:28:22.274Z,19.30
2023-03-29T08:30:49.630Z,19.30
2023-03-29T08:33:16.924Z,19.30
2023-03-29T08:35:43.810Z,19.30
2023-03-29T08:38:11.093Z,19.30
2023-03-29T08:40:37.856Z,19.30
2023-03-29T08:43:15.776Z,19.40
2023-03-29T08:45:54.423Z,19.40
2023-03-29T08:48:33.900Z,19.30
2023-03-29T08:51:06.704Z,19.40
2023-03-29T08:53:42.322Z,19.40
2023-03-29T08:56:14.962Z,19.40
2023-03-29T08:58:43.309Z,19.40
2023-03-29T09:01:11.365Z,19.40
2023-03-29T09:03:50.296Z,19.40
2023-03-29T09:06:20.629Z,19.40
2023-03-29T09:08:49.654Z,19.40
2023-03-29T09:11:56.774Z,19.40
2023-03-29T09:14:32.409Z,19.40
2023-03-29T09:17:02.029Z,19.40
2023-03-29T09:19:42.553Z,19.40
2023-03-29T09:22:43.736Z,19.40
2023-03-29T09:25:25.130Z,19.40
2023-03-29T09:28:05.767Z,19.40
2023-03-29T09:30:39.540Z,19.50
2023-03-29T09:33:15.325Z,19.50
2023-03-29T09:36:03.111Z,19.50
2023-03-29T09:38:31.994Z,19.50
2023-03-29T09:41:21.345Z,19.50
2023-03-29T09:43:50.402Z,19.60
2023-03-29T09:46:36.264Z,19.50
2023-03-29T09:49:10.140Z,19.50
2023-03-29T09:51:38.367Z,19.60
2023-03-29T09:54:05.082Z,19.50
2023-03-29T09:56:32.035Z,19.50
2023-03-29T09:58:58.690Z,19.60
2023-03-29T10:01:37.191Z,19.50
2023-03-29T10:04:07.556Z,19.60
2023-03-29T10:06:35.370Z,19.50
2023-03-29T10:09:02.943Z,19.50
2023-03-29T10:11:38.323Z,19.60
2023-03-29T10:14:12.590Z,19.60
2023-03-29T10:16:47.505Z,19.50
2023-03-29T10:19:30.756Z,19.50
2023-03-29T10:21:59.969Z,19.50
2023-03-29T10:24:27.382Z,19.60
2023-03-29T10:26:58.755Z,19.50
2023-03-29T10:29:27.604Z,19.60
2023-03-29T10:31:54.793Z,19.60
2023-03-29T10:34:25.823Z,19.50
2023-03-29T10:37:00.943Z,19.60
2023-03-29T10:39:32.386Z,19.60
2023-03-29T10:42:00.911Z,19.50
2023-03-29T10:44:34.177Z,19.50
2023-03-29T10:47:20.142Z,19.50
2023-03-29T10:49:58.645Z,19.60
2023-03-29T10:52:25.937Z,19.50
2023-03-29T10:55:13.817Z,19.50
2023-03-29T10:58:02.846Z,19.50
2023-03-29T11:00:40.672Z,19.50
2023-03-29T11:03:40.480Z,19.50
2023-03-29T11:06:27.807Z,19.60
2023-03-29T11:09:04.709Z,19.50
2023-03-29T11:12:01.272Z,19.50
2023-03-29T11:14:55.582Z,19.50
2023-03-29T11:17:27.877Z,19.60
2023-03-29T11:20:01.864Z,19.50
2023-03-29T11:22:38.002Z,19.60
2023-03-29T11:25:30.932Z,19.50
2023-03-29T11:28:15.496Z,19.60
2023-03-29T11:31:11.613Z,19.60
2023-03-29T11:34:11.448Z,19.60
2023-03-29T11:36:59.161Z,19.50
2023-03-29T11:39:44.018Z,19.50
2023-03-29T11:42:20.089Z,19.50
2023-03-29T11:44:49.384Z,19.60
2023-03-29T11:47:22.546Z,19.50
2023-03-29T11:49:56.105Z,19.60
2023-03-29T11:52:33.749Z,19.60
2023-03-29T11:55:15.246Z,19.60
2023-03-29T11:57:45.414Z,19.60
2023-03-29T12:00:30.863Z,19.60
2023-03-29T12:03:15.260Z,19.60
2023-03-29T12:05:52.061Z,19.60
2023-03-29T12:08:41.910Z,19.60
2023-03-29T12:11:33.297Z,19.60
2023-03-29T12:14:14.050Z,19.60
2023-03-29T12:16:53.286Z,19.60
2023-03-29T12:19:25.746Z,19.60
2023-03-29T12:21:56.010Z,19.70
2023-03-29T12:24:25.819Z,19.70
2023-03-29T12:26:58.931Z,19.70
2023-03-29T12:29:34.803Z,19.70
2023-03-29T12:32:31.862Z,19.70
2023-03-29T12:35:19.911Z,19.70
2023-03-29T12:38:01.640Z,21.90
2023-03-29T12:40:35.639Z,19.70
2023-03-29T12:43:08.471Z,19.70
2023-03-29T12:45:48.544Z,19.70
2023-03-29T12:48:19.660Z,19.70
2023-03-29T12:50:51.243Z,19.80
2023-03-29T12:53:35.831Z,19.70
2023-03-29T12:56:02.597Z,19.80
2023-03-29T12:59:07.520Z,19.80
2023-03-29T13:01:37.573Z,19.80
2023-03-29T13:04:19.781Z,19.70
2023-03-29T13:06:49.467Z,19.80
2023-03-29T13:09:46.538Z,19.70
2023-03-29T13:12:15.977Z,19.70
2023-03-29T13:14:53.090Z,19.70
2023-03-29T13:17:26.560Z,19.70
2023-03-29T13:20:30.203Z,19.70
2023-03-29T13:23:16.972Z,19.70
2023-03-29T13:25:50.691Z,19.70
2023-03-29T13:28:46.654Z,19.70
2023-03-29T13:31:33.372Z,19.80
2023-03-29T13:37:47.231Z,19.80
2023-03-29T13:40:44.441Z,19.80
2023-03-29T13:43:29.396Z,19.80
2023-03-29T13:45:58.797Z,19.80
2023-03-29T13:48:45.827Z,19.80
2023-03-29T13:51:18.327Z,19.80
2023-03-29T13:53:53.038Z,19.80
2023-03-29T13:56:24.971Z,19.80
2023-03-29T13:58:55.744Z,19.80
2023-03-29T14:01:25.838Z,19.80
2023-03-29T14:03:53.156Z,19.80
2023-03-29T14:06:31.744Z,19.80
2023-03-29T14:09:04.304Z,19.80
2023-03-29T14:11:31.444Z,19.80
2023-03-29T14:14:00.793Z,19.70
2023-03-29T14:16:31.330Z,19.70
2023-03-29T14:19:34.354Z,19.70
2023-03-29T14:22:02.106Z,19.70
2023-03-29T14:24:37.614Z,19.70
2023-03-29T14:27:06.835Z,19.70
2023-03-29T14:29:34.471Z,19.70
2023-03-29T14:32:18.890Z,19.70
2023-03-29T14:34:50.018Z,19.70
2023-03-29T14:37:22.557Z,19.80
2023-03-29T14:39:50.473Z,19.70
2023-03-29T14:42:23.387Z,19.80
2023-03-29T14:44:51.000Z,19.70
2023-03-29T14:47:30.803Z,19.70
2023-03-29T14:50:01.526Z,19.70
2023-03-29T14:52:30.449Z,19.60
2023-03-29T14:55:00.528Z,19.70
2023-03-29T14:57:32.486Z,19.60
2023-03-29T15:00:01.771Z,19.60
2023-03-29T15:02:33.146Z,19.60
2023-03-29T15:05:23.150Z,19.60
2023-03-29T15:07:51.395Z,19.60
2023-03-29T15:10:19.313Z,19.60
2023-03-29T15:12:46.448Z,18.40
2023-03-29T15:15:13.599Z,19.60
2023-03-29T15:17:50.394Z,19.60
2023-03-29T15:20:25.479Z,19.60
2023-03-29T15:22:53.868Z,19.60
2023-03-29T15:25:21.090Z,19.60
2023-03-29T15:27:54.595Z,19.60
2023-03-29T15:30:57.331Z,19.60
2023-03-29T15:33:37.795Z,19.60
2023-03-29T15:36:06.710Z,19.50
2023-03-29T15:38:43.314Z,19.60
2023-03-29T15:41:13.342Z,19.60
2023-03-29T15:43:41.083Z,19.60
2023-03-29T15:46:08.128Z,19.60
2023-03-29T15:48:36.515Z,19.60
2023-03-29T15:51:06.524Z,19.60
2023-03-29T15:53:33.875Z,19.60
2023-03-29T15:56:03.851Z,19.50
2023-03-29T15:58:32.429Z,19.50
2023-03-29T16:01:23.505Z,19.50
2023-03-29T16:03:50.807Z,19.50
2023-03-29T16:06:17.874Z,19.50
2023-03-29T16:08:44.759Z,19.60
2023-03-29T16:11:11.480Z,19.50
2023-03-29T16:13:38.190Z,19.50
2023-03-29T16:16:05.477Z,19.50
2023-03-29T16:18:32.325Z,19.50
2023-03-29T16:20:59.316Z,19.50
2023-03-29T16:23:26.475Z,19.50
2023-03-29T16:25:53.109Z,19.50
2023-03-29T16:28:19.899Z,19.40
2023-03-29T16:30:46.527Z,19.50
2023-03-29T16:33:13.357Z,19.40
2023-03-29T16:35:40.870Z,19.50
2023-03-29T16:38:08.950Z,19.40
2023-03-29T16:40:36.261Z,19.30
2023-03-29T16:43:02.950Z,19.40
2023-03-29T16:45:29.691Z,19.40
2023-03-29T16:47:56.945Z,19.40
2023-03-29T16:50:23.981Z,19.40
2023-03-29T16:52:53.431Z,19.40
2023-03-29T16:55:20.137Z,19.30
2023-03-29T16:57:48.371Z,19.30
2023-03-29T17:00:16.921Z,19.30
2023-03-29T17:02:44.371Z,19.40
2023-03-29T17:05:12.518Z,19.30
2023-03-29T17:07:39.772Z,19.40
2023-03-29T17:10:08.077Z,19.40
2023-03-29T17:12:35.352Z,19.30
2023-03-29T17:15:02.591Z,19.40
2023-03-29T17:17:29.455Z,19.40
2023-03-29T17:19:56.540Z,19.30
2023-03-29T17:22:23.836Z,19.40
2023-03-29T17:24:50.464Z,19.40
2023-03-29T17:27:17.403Z,19.40
2023-03-29T17:29:44.047Z,19.40
2023-03-29T17:32:10.695Z,19.40
2023-03-29T17:34:37.308Z,19.40
2023-03-29T17:37:04.517Z,19.40
2023-03-29T17:39:31.999Z,19.40
2023-03-29T17:41:58.644Z,19.40
2023-03-29T17:44:25.420Z,19.40
2023-03-29T17:46:52.175Z,19.30
2023-03-29T17:49:18.863Z,19.40
2023-03-29T17:51:46.129Z,19.30
2023-03-29T17:54:12.725Z,19.30
2023-03-29T17:56:39.479Z,19.40
2023-03-29T17:59:06.095Z,19.30
2023-03-29T18:01:32.993Z,19.30
2023-03-29T18:03:59.673Z,19.40
2023-03-29T18:06:26.301Z,19.30
2023-03-29T18:08:56.614Z,21.40
2023-03-29T18:11:24.614Z,19.30
2023-03-29T18:13:54.760Z,19.40
2023-03-29T18:16:21.959Z,19.30
2023-03-29T18:18:48.903Z,19.40
2023-03-29T18:21:16.925Z,19.30
2023-03-29T18:23:48.104Z,19.30
2023-03-29T18:26:16.249Z,19.30
2023-03-29T18:28:46.853Z,19.40
2023-03-29T18:31:14.069Z,19.30
2023-03-29T18:33:40.826Z,19.40
2023-03-29T18:36:11.868Z,19.40
2023-03-29T18:38:40.416Z,19.40
2023-03-29T18:41:08.501Z,19.40
2023-03-29T18:43:35.806Z,19.30
2023-03-29T18:46:03.127Z,19.30
2023-03-29T18:48:30.142Z,19.30
2023-03-29T18:50:57.706Z,19.30
2023-03-29T18:53:24.781Z,19.30
2023-03-29T18:55:51.443Z,19.30
2023-03-29T18:58:20.174Z,19.40
2023-03-29T19:00:46.902Z,19.50
2023-03-29T19:03:13.614Z,19.50
2023-03-29T19:05:40.400Z,19.60
2023-03-29T19:08:08.886Z,19.60
2023-03-29T19:10:39.391Z,19.70
2023-03-29T19:13:06.434Z,19.70
2023-03-29T19:15:34.501Z,19.70
2023-03-29T19:18:01.537Z,19.70
2023-03-29T19:20:29.238Z,19.60
2023-03-29T19:22:55.861Z,19.70
2023-03-29T19:25:22.580Z,19.70
2023-03-29T19:27:50.173Z,19.70
2023-03-29T19:30:18.216Z,19.70
2023-03-29T19:32:44.856Z,19.70
2023-03-29T19:35:12.743Z,19.70
2023-03-29T19:37:39.864Z,19.70
2023-03-29T19:40:08.787Z,19.70
2023-03-29T19:42:36.022Z,19.70
2023-03-29T19:45:03.828Z,19.70
2023-03-29T19:47:30.524Z,19.70
2023-03-29T19:49:58.375Z,19.70
2023-03-29T19:52:27.732Z,19.70
2023-03-29T19:54:58.175Z,19.70
2023-03-29T19:57:25.246Z,19.70
2023-03-29T19:59:53.835Z,19.70
2023-03-29T20:02:20.474Z,19.60
2023-03-29T20:04:47.449Z,19.50
2023-03-29T20:07:14.085Z,19.30
2023-03-29T20:09:43.890Z,19.30
2023-03-29T20:12:11.867Z,19.20
2023-03-29T20:14:40.086Z,19.30
2023-03-29T20:17:07.293Z,19.40
2023-03-29T20:19:36.391Z,19.30
2023-03-29T20:22:04.236Z,19.20
2023-03-29T20:24:32.416Z,19.20
2023-03-29T20:26:59.084Z,19.20
2023-03-29T20:29:25.877Z,19.20
2023-03-29T20:31:52.557Z,19.40
2023-03-29T20:34:19.204Z,19.10
2023-03-29T20:36:46.736Z,19.10
2023-03-29T20:39:17.496Z,19.10
2023-03-29T20:41:47.541Z,19.10
2023-03-29T20:44:16.800Z,19.10
2023-03-29T20:46:54.397Z,19.10
2023-03-29T20:49:26.253Z,19.10
2023-03-29T20:51:59.208Z,19.10
2023-03-29T20:54:26.411Z,19.10
2023-03-29T20:56:54.659Z,19.10
2023-03-29T20:59:22.813Z,19.10
2023-03-29T21:01:50.091Z,19.10
2023-03-29T21:04:17.746Z,19.10
2023-03-29T21:06:45.607Z,19.10
2023-03-29T21:09:13.416Z,19.10
2023-03-29T21:11:40.130Z,19.10
2023-03-29T21:14:06.954Z,19.10
2023-03-29T21:16:33.562Z,19.10
2023-03-29T21:19:00.404Z,19.00
2023-03-29T21:21:27.064Z,19.00
2023-03-29T21:23:53.651Z,19.10
2023-03-29T21:26:20.301Z,19.00
2023-03-29T21:28:48.471Z,19.00
2023-03-29T21:31:15.216Z,19.00
2023-03-29T21:33:41.859Z,19.00
2023-03-29T21:36:08.740Z,19.00
2023-03-29T21:38:35.621Z,19.00
2023-03-29T21:41:03.205Z,19.00
2023-03-29T21:43:30.204Z,19.00
2023-03-29T21:45:57.553Z,19.00
2023-03-29T21:48:24.271Z,19.00
2023-03-29T21:50:50.985Z,19.00
2023-03-29T21:53:18.203Z,19.00
2023-03-29T21:55:47.554Z,19.00
2023-03-29T21:58:14.321Z,19.00
2023-03-29T22:00:41.564Z,19.00
2023-03-29T22:03:08.340Z,19.00
2023-03-29T22:05:35.372Z,19.00
2023-03-29T22:08:02.588Z,19.00
2023-03-29T22:10:29.471Z,19.00
2023-03-29T22:12:56.960Z,19.00
2023-03-29T22:15:24.205Z,19.00
2023-03-29T22:17:53.161Z,19.00
2023-03-29T22:20:20.211Z,19.00
2023-03-29T22:22:51.768Z,19.00
2023-03-29T22:25:19.405Z,19.00
2023-03-29T22:27:47.891Z,19.00
2023-03-29T22:30:15.977Z,19.00
2023-03-29T22:32:42.825Z,19.00
2023-03-29T22:35:09.942Z,19.00
2023-03-29T22:37:41.805Z,19.00
2023-03-29T22:40:10.342Z,18.90
2023-03-29T22:42:37.139Z,18.90
2023-03-29T22:45:04.536Z,18.90
2023-03-29T22:47:31.168Z,18.90
2023-03-29T22:49:57.782Z,19.00
2023-03-29T22:52:24.433Z,19.00
2023-03-29T22:54:51.099Z,19.00
2023-03-29T22:57:17.756Z,19.00
2023-03-29T22:59:44.374Z,19.00
2023-03-29T23:02:10.983Z,19.00
2023-03-29T23:04:38.689Z,19.00
2023-03-29T23:07:06.337Z,19.00
2023-03-29T23:09:33.006Z,18.90
2023-03-29T23:12:01.022Z,18.90
2023-03-29T23:14:27.749Z,18.90
2023-03-29T23:16:54.358Z,18.90
2023-03-29T23:19:20.964Z,18.90
2023-03-29T23:21:47.590Z,18.80
2023-03-29T23:24:18.311Z,18.90
2023-03-29T23:26:45.601Z,18.90
2023-03-29T23:29:12.412Z,18.90
2023-03-29T23:31:39.068Z,18.90
2023-03-29T23:34:05.768Z,18.90
2023-03-29T23:36:32.393Z,18.90
2023-03-29T23:38:59.482Z,18.90
2023-03-29T23:41:28.218Z,18.90
2023-03-29T23:43:57.466Z,18.90
2023-03-29T23:46:24.457Z,18.90
2023-03-29T23:48:51.303Z,18.90
2023-03-29T23:51:22.518Z,18.90
2023-03-29T23:53:49.858Z,18.90
2023-03-29T23:56:16.783Z,18.80
2023-03-29T23:58:44.288Z,18.80
